createdAt,value
2022-08-22T15:33:43.423Z,11.23
2022-08-22T15:36:25.307Z,11.47
2022-08-22T15:39:00.559Z,11.10
2022-08-22T15:41:37.015Z,11.97
2022-08-22T15:44:32.501Z,13.30
2022-08-22T15:47:28.491Z,12.73
2022-08-22T15:50:05.492Z,11.40
2022-08-22T15:53:14.515Z,11.33
2022-08-22T15:56:06.989Z,11.90
2022-08-22T15:58:38.458Z,11.63
2022-08-22T16:01:26.507Z,11.40
2022-08-22T16:04:02.756Z,12.83
2022-08-22T16:06:56.021Z,11.50
2022-08-22T16:09:36.696Z,11.43
2022-08-22T16:12:28.283Z,10.67
2022-08-22T16:14:56.852Z,11.10
2022-08-22T16:17:47.165Z,11.40
2022-08-22T16:20:22.581Z,11.20
2022-08-22T16:23:01.909Z,10.27
2022-08-22T16:25:47.008Z,11.67
2022-08-22T16:28:56.404Z,10.70
2022-08-22T16:31:29.863Z,10.83
2022-08-22T16:34:18.192Z,10.87
2022-08-22T16:37:12.816Z,11.03
2022-08-22T16:39:46.079Z,11.27
2022-08-22T16:42:22.222Z,12.00
2022-08-22T16:45:08.644Z,12.20
2022-08-22T16:47:43.471Z,12.07
2022-08-22T16:50:23.329Z,11.80
2022-08-22T16:53:30.380Z,13.13
2022-08-22T16:56:28.143Z,12.67
2022-08-22T16:59:23.561Z,12.33
2022-08-22T17:02:38.959Z,12.73
2022-08-22T17:05:30.352Z,15.37
2022-08-22T17:08:24.844Z,13.90
2022-08-22T17:11:05.019Z,13.37
2022-08-22T17:14:04.481Z,13.97
2022-08-22T17:16:54.294Z,14.20
2022-08-22T17:19:52.413Z,13.17
2022-08-22T17:22:44.859Z,12.40
2022-08-22T17:25:46.658Z,12.10
2022-08-22T17:28:27.810Z,12.27
2022-08-22T17:31:11.458Z,13.83
2022-08-22T17:33:41.389Z,12.50
2022-08-22T17:39:29.119Z,12.40
2022-08-22T17:42:29.675Z,12.97
2022-08-22T17:45:12.263Z,14.00
2022-08-22T17:48:01.228Z,13.97
2022-08-22T17:50:35.452Z,15.53
2022-08-22T17:53:29.850Z,14.93
2022-08-22T17:55:57.482Z,14.07
2022-08-22T17:59:14.674Z,13.10
2022-08-22T18:01:59.913Z,13.83
2022-08-22T18:05:07.016Z,13.53
2022-08-22T18:07:56.713Z,13.80
2022-08-22T18:10:54.533Z,13.23
2022-08-22T18:13:37.611Z,11.60
2022-08-22T18:16:12.713Z,11.13
2022-08-22T18:18:53.446Z,12.90
2022-08-22T18:21:36.393Z,12.80
2022-08-22T18:24:10.706Z,12.60
2022-08-22T18:27:34.429Z,12.33
2022-08-22T18:30:18.268Z,11.60
2022-08-22T18:33:32.765Z,11.60
2022-08-22T18:36:10.241Z,10.73
